ACT        NSW        VIC        QLD        SA        WA        TAS        NT        INFO        CALC            by VK5ZD

Past Date/Time: (dd/mm/yyyy hh:mm or blank for current data)    

  Atmospheric Gas Attenuation - ITU Rec 676-11   --------------- dB/100km ---------------
WA Stations Date Time Temp RH % AH g/m3 Dew Point Wind Direction Speed kph Gust kph Barometer mB Rainfall Since 9am 24GHz 47GHz 76GHz 122GHz 134GHz 241GHz
Albany Airport 05/09 23:40 12.9 96 10.82 12.3 17 24 1017.4 2.2 24.4 30.1 49.9 131.3 130.9 451.9
Badgingarra 05/09 23:40 11.5 95 9.81 10.7 0 0 1013.1 0 22.3 28.6 46.1 121.2 118.2 407.5
Barimunya 05/09 23:40 23.2 20 4.16 -1 17 20 1013.1 0 9.9 17.5 21.0 54.3 39.7 133.6
Barrow Island 05/09 23:40 20.8 74 13.4 16 43 50 1017.3 0 29.4 31.8 55.7 147.0 153.0 530.2
Bickley 05/09 23:40 11.2 97 9.83 10.7 4 7 1013.1 5.2 22.4 28.8 46.4 121.9 119.0 410.1
Boolgeeda 05/09 23:40 20.2 33 5.77 3.4 13 19 1015.7 0 13.3 20.2 27.0 70.2 58.3 198.6
Bridgetown 05/09 23:40 11.3 97 9.9 10.8 4 6 1017.6 13.4 22.5 29.0 46.8 123.1 120.3 414.6
Broome 05/09 23:40 24 81 17.62 20.5 9 11 1015.3 0 38.1 38.0 71.8 189.9 206.9 718.3
Bunbury 05/09 23:40 11.4 101 10.37 11.4 4 4 1017.6 2.8 23.5 29.8 48.8 128.5 126.9 437.8
Busselton Airport 05/09 23:40 12.7 99 11.02 12.5 24 39 1018.1 13 24.8 30.6 50.9 134.1 134.2 463.5
Cape Leeuwin 05/09 23:40 13.7 76 9 9.6 39 56 1019.8 3.4 20.4 26.8 41.8 109.6 104.4 359.5
Cape Naturaliste 05/09 23:40 11.2 95 9.63 10.4 39 57 1017.6 12.8 21.9 28.6 45.7 120.1 116.6 401.6
Carnarvon 05/09 23:40 16.9 86 12.37 14.5 41 57 1017.9 2.4 27.5 31.5 54.0 142.4 146.1 505.4
Christmas Creek 05/09 23:40 24.5 35 7.83 8 20 26 1014.2 0 17.5 22.0 32.3 84.5 77.3 265.9
Christmas Island 05/09 23:40 23.3 85 17.77 20.6 19 30 1017.5 0 38.5 38.7 73.3 193.9 211.4 734.0
Collie East 05/09 23:40 11.4 94 9.65 10.5 0 0 1013.1 3.4 22.0 28.4 45.5 119.5 116.1 400.1
Coondewanna 05/09 23:40 18.3 25 3.91 -2 9 11 1013.1 0 9.5 18.1 21.5 55.5 39.6 132.4
Cunderdin Airport 05/09 23:40 7.8 92 7.51 6.6 7 9 1016.8 0 17.5 26.0 38.5 100.7 91.3 312.9
Curtin 05/09 23:40 21.9 56 10.81 12.7 11 13 1013.9 0 23.9 27.0 44.3 116.5 116.0 401.1
Dalwallinu 05/09 23:40 11.4 89 9.14 9.7 9 11 1015.4 0 20.9 27.6 43.4 114.0 109.1 375.7
Derby 05/09 23:40 22.1 62 12.1 14.5 11 13 1014.6 0 26.6 29.1 49.3 129.9 132.5 458.9
Dwellingup 05/09 23:40 11.7 95 9.94 10.9 11 15 1016.9 8.2 22.6 28.9 46.7 122.9 120.1 414.2
Eliwana Airport 05/09 23:40 20.6 38 6.8 5.8 13 20 1013.1 0 15.5 21.4 30.2 78.9 69.2 237.1
Esperance 05/09 23:40 14.6 77 9.64 10.6 20 26 1018.2 0 21.8 27.5 43.8 115.2 111.7 385.0
Esperance Airport 05/09 23:40 10.3 89 8.53 8.6 17 17 1018.3 0 19.6 27.0 41.5 109.0 102.4 352.1
Eucla 05/09 23:40 8.8 88 7.66 6.9 15 19 1021.2 0 17.8 26.1 38.8 101.6 92.6 317.2
Fitzroy Crossing 05/09 23:40 27.5 40 10.58 12.7 22 30 1012.9 0 23.1 25.0 40.4 106.4 105.3 364.2
Forrest 05/09 23:40 10.3 78 7.47 6.6 1020.8 0 17.3 25.3 37.3 97.5 88.2 302.2
Fortescue Dave Forrest 05/09 23:40 23.1 40 8.27 8.8 20 30 1013.8 0 18.5 22.9 34.3 89.9 83.7 288.0
Garden Island 05/09 23:40 14.1 99 12.02 13.9 13 17 1017.1 4 26.9 31.8 54.4 143.4 146.3 505.7
Geraldton Airport 05/09 23:40 13.8 94 11.2 12.9 6 9 1014.6 25.6 25.2 30.4 50.8 133.8 134.5 464.8
Gerangamete (Cfa) 06/09 01:30 11.5 86 8.88 9.3 19 26 1013.1 4.2 20.3 27.0 42.1 110.7 105.2 362.0
Giles* 06/09 01:10 19.4 40 6.67 5.5 0 0 1016.5 0 15.3 21.6 30.3 79.1 69.0 236.1
Gingin Airport 05/09 23:40 13.3 97 11.21 12.8 13 19 1017 2.4 25.2 30.6 51.3 135.1 135.8 469.2
Golden Grove 05/09 23:40 13.9 75 8.99 9.5 11 13 1013.1 0 20.4 26.5 41.3 108.5 103.4 356.2
Gooseberry Hill 05/09 23:40 12.2 101 10.9 12.2 7 9 1013.1 0 24.6 30.3 50.5 132.9 132.8 458.6
Gudai-Darri Mine 05/09 23:40 23.2 27 5.61 3.2 13 19 1013.1 0 12.9 19.3 25.4 66.2 54.4 185.2
Halls Creek 06/09 01:10 24 42 9.14 10.3 0 0 1013.4 0 20.2 23.9 37.0 97.1 92.8 320.0
Hopetoun North 05/09 23:40 10.6 90 8.79 9 11 13 1016.9 0 20.2 27.3 42.4 111.3 105.5 362.9
Iron Bridge Mine 05/09 23:40 20.2 61 10.66 12.4 9 11 1013.1 0.2 23.6 27.3 44.6 117.3 116.5 402.7
Jacup 05/09 23:40 12 68 7.25 6.3 11 13 1017.1 0 16.8 24.4 35.5 92.8 83.2 284.9
Jandakot 05/09 23:40 13.2 96 11.02 12.6 2 7 1016.7 9.2 24.8 30.3 50.5 133.0 133.2 460.0
Kalgoorlie-Boulder 05/09 23:40 12.6 55 6.09 3.8 7 9 1014.8 0 14.3 22.4 30.7 80.1 67.9 231.4
Kalumburu 05/09 23:40 20.9 88 16.03 18.8 0 0 1015.5 0 35.0 36.4 67.3 177.8 191.0 662.7
Karijini North 05/09 23:40 25.4 19 4.47 0.1 20 32 1013.8 0 10.5 17.5 21.4 55.4 41.7 140.8
Karnet 05/09 15:00 14.5 84 10.45 11.8 2 1013.1 0.5 23.5 28.8 47.1 123.8 122.5 423.0
Karratha 05/09 23:40 22.1 57 11.13 13.2 33 41 1015.8 0 24.5 27.6 45.5 119.7 120.0 415.0
Katanning Rs 05/09 23:40 11.6 89 9.25 9.9 6 15 1017.4 0 21.1 27.8 43.8 115.2 110.6 380.7
Koolan Island / Koolan Central 05/09 23:40 24.3 84 18.59 21.4 20 22 1013.1 0 40.2 39.6 75.9 200.9 220.5 765.8
Kununurra Airport 06/09 01:10 22.1 75 14.64 17.5 6 9 1014.4 0 31.9 33.4 60.0 158.4 167.5 581.1
Lake Grace 05/09 23:40 8.2 84 7.04 5.7 6 6 1016.9 0 16.5 25.1 36.3 95.1 84.5 288.9
Lancelin (Defence) 05/09 23:40 13.7 102 12.08 13.7 9 13 1015.6 9.4 27.1 32.0 54.9 144.7 147.8 510.9
Laverton 05/09 23:40 16.5 48 6.74 5.5 19 24 1014.1 0 15.5 22.3 31.6 82.5 72.2 247.1
Learmonth 05/09 23:40 18 67 10.29 11.8 13 17 1018.9 0 23.0 27.6 44.6 117.3 115.5 398.8
Legendre Island 05/09 23:40 22.8 68 13.82 16.6 54 67 1015.5 0 30.1 31.7 56.0 147.7 154.6 536.2
Leinster 05/09 23:40 15.7 41 5.49 2.5 9 11 1011.2 0 12.9 20.6 27.3 71.2 58.2 197.6
Leonora Airport 05/09 23:40 15.7 51 6.82 5.6 9 13 1013.1 0 15.7 22.6 32.1 84.0 73.9 252.7
Lombadina 05/09 23:40 23.7 90 19.25 22 9 15 1013.1 0 41.6 41.2 79.7 210.9 232.7 808.0
Mandora 05/09 23:40 22.1 95 18.54 21.3 11 17 1014.3 0 40.3 40.6 78.0 206.4 226.5 786.4
Mandurah 05/09 23:40 14.1 89 10.8 12.3 11 19 1016.7 15.8 24.3 29.6 49.0 128.9 128.5 443.7
Manjimup 05/09 23:40 11.3 99 10.1 11.1 17 26 1018.1 9.6 22.9 29.4 47.7 125.5 123.2 424.8
Marble Bar 05/09 23:40 24.2 40 8.8 9.8 6 15 1014.7 0 19.5 23.4 35.7 93.8 88.7 305.7
Mardie 05/09 23:40 20.2 65 11.36 13.4 22 30 1017.4 0 25.1 28.6 47.6 125.3 126.1 436.3
Meekatharra 05/09 23:40 17.6 45 6.75 5.5 15 20 1013.4 0 15.5 22.1 31.2 81.4 71.3 244.0
Millendon (Swan Valley) 05/09 23:40 13.5 97 11.35 13 0 0 1016.6 2.8 25.5 30.8 51.8 136.4 137.5 474.9
Morawa Airport 05/09 23:40 12.6 92 10.18 11.3 6 9 1015.4 0 23.0 29.0 47.2 124.0 122.0 420.8
Mount Keith 05/09 23:40 14.1 53 6.43 4.7 6 6 1013.1 0 15.0 22.4 31.3 81.8 70.6 241.1
Mount Magnet Airport 05/09 23:40 15.6 59 7.85 7.6 13 17 1013.7 0 17.9 24.2 36.0 94.4 86.7 297.6
Munglinup West 05/09 23:40 9.2 90 8.04 7.6 13 17 1017.7 0 18.6 26.5 40.0 104.9 97.0 333.0
Newdegate 05/09 23:40 4.4 88 5.75 2.6 0 0 1016.7 0 13.9 24.0 32.7 85.3 70.9 240.8
Newman Airport 05/09 23:40 22.6 20 4.02 -1.5 11 13 1013.2 0 9.6 17.4 20.7 53.6 38.6 129.7
Norseman Airport 05/09 23:40 9 73 6.44 4.4 13 15 1016.5 0 15.2 23.9 33.5 87.7 75.7 258.2
North Island 05/09 23:40 14.8 87 11.02 12.7 17 22 1015.1 3.4 24.7 29.7 49.4 130.1 130.3 450.0
Onslow Airport 05/09 23:40 19.1 72 11.8 13.9 24 32 1018.9 0 26.1 29.7 50.2 132.1 134.1 464.0
Paraburdoo 05/09 23:40 23 27 5.55 3 17 24 1014.1 0 12.8 19.3 25.3 65.9 53.9 183.6
Pearce 05/09 23:40 13.8 94 11.2 12.9 11 15 1016.7 1 25.2 30.4 50.9 134.1 134.7 465.5
Perth 05/09 23:40 13.5 99 11.58 13.3 0 0 1016.8 9.4 26.0 31.2 52.8 139.2 140.9 486.8
Perth Airport 05/09 23:40 13.5 97 11.35 13 6 9 1016.5 6.6 25.5 30.8 51.8 136.4 137.5 474.9
Port Hedland 05/09 23:40 21.2 83 15.38 18.2 15 19 1015.1 0 33.6 35.1 64.0 169.2 180.5 626.0
Portable Btsa (Dfes) 05/09 23:30 14.8 91 11.53 13.4 9 13 1013.1 3.2 25.8 30.5 51.5 135.8 137.3 474.7
Portable Btsd (Dfes) 05/09 23:30 11.1 69 6.95 5.6 13 13 1013.1 0 16.2 24.0 34.5 90.3 80.0 273.5
Portable Btsf (Dfes) 05/09 22:00 21.1 31 5.71 3.4 13 15 1013.1 0 13.2 19.8 26.4 68.7 56.9 193.7
Portable Btsh (Dfes) 05/09 23:30 9.8 84 7.8 7.2 11 11 1013.1 0 18.1 25.7 38.5 101.0 92.6 317.7
Portable Btsj (Dfes) 05/09 23:30 13.6 97 11.42 13.2 6 7 1013.1 7.8 25.7 30.8 51.9 136.6 137.9 476.6
Portable Btsl (Dfes) 05/09 23:30 10.8 67 6.62 4.9 13 17 1013.1 0 15.5 23.6 33.4 87.2 76.0 259.7
Portable Btsm (Dfes) 05/09 23:30 21.3 23 4.29 -0.5 6 7 1013.1 0 10.2 18.0 21.9 56.6 42.0 141.2
Portable Btsn (Dfes) 05/09 23:30 13.9 59 7.07 6 0 2 1013.1 0 16.3 23.5 33.8 88.4 78.6 269.3
Portable Btso (Dfes) 05/09 23:30 11.5 94 9.71 10.5 0 2 1013.1 4.4 22.1 28.5 45.7 120.1 116.8 402.6
Rocky Gully South 05/09 23:40 11.3 94 9.59 10.4 7 9 1013.1 1 21.8 28.3 45.3 119.0 115.4 397.7
Roebourne Airport 05/09 23:40 22.4 54 10.72 12.6 20 26 1015.7 0 23.6 26.8 43.7 115.0 114.3 395.1
Rottnest Island 05/09 23:40 14.2 94 11.48 13.2 37 48 1016.4 11.2 25.7 30.8 51.9 136.7 138.1 477.1
Salmon Gums Rs 05/09 23:40 8.7 97 8.39 8.3 4 6 1013.1 0 19.4 27.1 41.6 109.1 102.2 351.0
Shannon 05/09 23:40 11.4 99 10.16 11.2 19 35 1013.1 13.4 23.1 29.3 47.7 125.5 123.4 425.6
Shark Bay Airport 05/09 23:40 15.2 82 10.64 12.2 30 43 1016.7 1.2 23.9 29.0 47.6 125.3 124.4 429.6
Solomon Airport 05/09 23:40 21.7 28 5.34 2.4 11 19 1015.5 0 12.4 19.3 25.1 65.2 52.7 178.9
Southern Cross Airport 05/09 23:40 10.3 83 7.95 7.5 11 13 1016.4 0 18.4 26.0 39.0 102.3 94.3 323.7
Swanbourne 05/09 23:40 13.1 101 11.53 13.1 7 11 1013.1 10 25.9 31.1 52.7 138.8 140.5 485.4
Telfer 05/09 23:40 26.2 25 6.15 4.6 17 20 1013.4 0 13.9 19.4 26.2 68.3 57.9 198.0
Thevenard Island 05/09 23:40 20.5 67 11.92 14.2 37 48 1018.6 0 26.3 29.5 49.8 131.1 133.3 461.3
Troughton Island 05/09 23:40 25.7 83 19.87 22.6 17 19 1015.8 0 42.7 41.5 80.8 213.7 236.5 821.7
Truscott 05/09 23:40 23.6 91 19.35 22 6 9 1015.2 0 41.8 41.5 80.5 212.9 234.9 815.7
Walpole North 05/09 23:40 12.6 98 10.84 12.3 22 33 1018 0 24.5 30.3 50.2 132.1 131.8 454.9
Wandering 05/09 23:40 12.3 96 10.43 11.7 7 9 1013.1 0.6 23.6 29.5 48.3 127.2 125.8 434.2
Warburton 06/09 01:10 20.8 32 5.79 3.5 17 24 1016.6 0 13.4 20.1 26.9 70.0 58.1 198.0
West Angelas 05/09 23:40 21.5 23 4.34 -0.5 11 20 1014.7 0 10.3 18.1 22.0 57.0 42.4 142.9
West Musgrave Airport 05/09 23:40 19.2 37 6.1 4.2 0 6 1013.1 0 14.1 20.8 28.3 73.8 62.5 213.4
Wiluna Airport 05/09 23:40 16.5 34 4.77 0.6 11 13 1011.9 0 11.4 19.5 24.7 64.1 49.6 167.7
Witchcliffe West 05/09 23:40 11.8 83 8.74 9 20 33 1019.3 6.6 20.0 27.0 41.7 109.3 103.4 355.7
Wyndham Airport 06/09 01:10 24.5 61 13.65 16.5 7 7 1014.3 0 29.7 30.8 54.0 142.5 148.8 516.1
Yampi Sound (Defence) 05/09 23:40 24.3 81 17.92 20.8 6 9 1018.4 0 38.7 38.6 73.1 193.3 211.0 732.8

Last Refresh: 06-Sep-2026 01:24:30

Bureau of Meteorology